FNCT Airport Information

Runway Information
Airport Frequencies
Airport Navaids
Airport Weather Information & NOTAM
ADDS - METARS form results

(1308 UTC 23 February 2019)
Data provider http://aviationweather.gov/metar/data/
 
Forecast for: FNCT (CATUMBELA , AO)
Text: TAF FNCT 231045Z 2312/2324 30010KT 9999 FEW020
Forecast period: 1200 to 2200 UTC 23 February 2019
Forecast type: FROM: standard forecast or significant change
Winds: from the WNW (300 degrees) at 12 MPH (10 knots; 5.1 m/s)
Visibility: 6 or more miles 10+ km)
Ceiling: at least 12,000 feet AGL
Clouds: few clouds at 2000 feet AGL
Weather: no significant weather forecast for this period
Text: BECMG 2322/2324 20006KT 8000 BKN020
Forecast period: 2200 UTC 23 February 2019 to 0000 UTC 24 February 2019
Forecast type: BECOMING: Conditions expected to become as follows by 0000 UTC 24 February 2019
Winds: from the SSW (200 degrees) at 7 MPH (6 knots; 3.1 m/s)
Visibility: 5 miles (8 km)
Ceiling: 2000 feet AGL
Clouds: broken clouds at 2000 feet AGL
Weather: no significant weather forecast for this period